Time;durP1;ratioP1;P1;durP2;ratioP2;P2;SDS_P1;SDS_P2;PMS_P1;PMS_P2;Temp;Humidity;BMP_temperature;BMP_pressure;BME280_temperature;BME280_humidity;BME280_pressure;Samples;Min_cycle;Max_cycle;Signal;HPM_P1;HPM_P2
2021/11/09 00:03:32;;;;;;;17.10;10.83;;;;;;;5.54;100.00;101243.28;20832459;28;20232;-56
2021/11/09 00:13:37;;;;;;;17.07;10.53;;;;;;;5.33;100.00;101257.97;20832026;28;20592;-57
2021/11/09 00:23:41;;;;;;;17.33;9.70;;;;;;;5.22;100.00;101275.94;20830210;28;20341;-56
2021/11/09 00:33:46;;;;;;;12.83;9.07;;;;;;;5.20;100.00;101280.38;20830561;28;20224;-58
2021/11/09 00:43:50;;;;;;;13.47;8.17;;;;;;;5.13;100.00;101289.41;20829404;28;20568;-56
2021/11/09 00:53:55;;;;;;;13.03;7.50;;;;;;;5.03;100.00;101299.38;20829202;28;20311;-55
2021/11/09 01:03:59;;;;;;;12.60;7.83;;;;;;;4.95;100.00;101316.34;20828068;28;20612;-59
2021/11/09 01:14:05;;;;;;;13.93;9.30;;;;;;;4.79;100.00;101309.69;20825906;28;20607;-57
2021/11/09 01:24:10;;;;;;;10.87;7.87;;;;;;;4.50;100.00;101324.47;20826367;28;20232;-56
2021/11/09 01:34:15;;;;;;;10.57;7.33;;;;;;;4.29;100.00;101324.97;20825515;28;20634;-54
2021/11/09 01:44:19;;;;;;;11.03;7.57;;;;;;;4.01;100.00;101334.38;20824727;28;20246;-54
2021/11/09 01:54:24;;;;;;;15.57;8.50;;;;;;;3.90;100.00;101330.19;20824078;28;20235;-54
2021/11/09 02:04:28;;;;;;;13.73;7.53;;;;;;;3.75;100.00;101348.97;20823488;28;20237;-56
2021/11/09 02:14:33;;;;;;;14.93;8.60;;;;;;;3.69;100.00;101359.69;20822580;28;20261;-54
2021/11/09 02:24:38;;;;;;;15.10;9.30;;;;;;;3.57;100.00;101379.25;20822221;28;20222;-56
2021/11/09 02:34:42;;;;;;;15.83;8.27;;;;;;;3.31;100.00;101389.41;20821858;28;20611;-55
2021/11/09 02:44:54;;;;;;;12.37;7.73;;;;;;;3.03;100.00;101410.09;20820828;28;20236;-55
2021/11/09 02:55:02;;;;;;;11.37;7.50;;;;;;;2.71;100.00;101412.34;20820676;28;20704;-55
2021/11/09 03:05:14;;;;;;;14.97;7.40;;;;;;;2.38;100.00;101435.63;20819362;28;20290;-58
2021/11/09 03:15:21;;;;;;;15.43;7.87;;;;;;;2.07;100.00;101442.16;20819686;28;20332;-54
2021/11/09 03:46:09;;;;;;;18.53;7.70;;;;;;;1.22;100.00;101493.81;20916880;28;20231;-56
2021/11/09 03:56:18;;;;;;;17.73;7.63;;;;;;;1.01;100.00;101499.22;20916389;28;20220;-56
2021/11/09 04:06:31;;;;;;;18.63;9.20;;;;;;;0.85;100.00;101498.44;20915601;28;20316;-58
2021/11/09 04:16:41;;;;;;;20.47;9.40;;;;;;;0.71;100.00;101514.31;20915130;28;20223;-59
2021/11/09 04:27:04;;;;;;;23.97;8.70;;;;;;;0.55;100.00;101530.13;20914212;28;20779;-67
2021/11/09 05:08:37;;;;;;;21.70;9.33;;;;;;;-0.07;100.00;101591.50;20910504;28;20731;-57
2021/11/09 05:18:41;;;;;;;24.93;10.60;;;;;;;-0.17;100.00;101606.38;20909854;28;20220;-55
2021/11/09 05:28:48;;;;;;;23.83;11.33;;;;;;;-0.24;100.00;101630.00;20895689;28;20318;-62
2021/11/09 05:39:02;;;;;;;25.03;11.33;;;;;;;-0.29;100.00;101655.34;20838281;28;20227;-67
2021/11/09 05:49:08;;;;;;;24.67;11.37;;;;;;;-0.33;100.00;101670.19;20827134;28;20316;-62
2021/11/09 05:59:13;;;;;;;22.33;9.63;;;;;;;-0.40;100.00;101690.28;20849469;28;20332;-59
2021/11/09 06:09:18;;;;;;;31.33;11.50;;;;;;;-0.45;100.00;101699.88;20846256;28;20328;-68
2021/11/09 06:19:23;;;;;;;66.73;12.13;;;;;;;-0.38;100.00;101719.16;20853477;28;20836;-58
2021/11/09 06:29:28;;;;;;;52.17;13.07;;;;;;;-0.19;100.00;101736.66;20875139;28;20682;-57
2021/11/09 06:39:32;;;;;;;57.50;13.43;;;;;;;-0.03;100.00;101763.81;20875574;28;20224;-68
2021/11/09 06:49:38;;;;;;;77.53;16.37;;;;;;;0.45;100.00;101801.53;20877712;28;20293;-63
2021/11/09 06:59:41;;;;;;;60.30;15.17;;;;;;;0.93;100.00;101829.53;20871202;28;20302;-60
2021/11/09 07:09:46;;;;;;;90.57;17.47;;;;;;;1.18;100.00;101843.53;20875361;28;20302;-59
2021/11/09 07:19:51;;;;;;;101.90;18.40;;;;;;;1.41;100.00;101868.91;20873867;28;20318;-65
2021/11/09 07:29:57;;;;;;;133.07;21.83;;;;;;;1.58;100.00;101886.41;20799317;28;20359;-62
2021/11/09 07:40:00;;;;;;;81.97;17.13;;;;;;;1.85;100.00;101901.25;20790276;28;20644;-60
2021/11/09 07:50:06;;;;;;;140.50;22.70;;;;;;;1.85;100.00;101917.91;20789431;28;20221;-58
2021/11/09 08:00:21;;;;;;;47.67;14.50;;;;;;;1.93;100.00;101941.59;20789581;28;20240;-63
2021/11/09 08:10:26;;;;;;;104.37;16.57;;;;;;;2.05;100.00;101952.09;20791353;28;20235;-61
2021/11/09 08:20:30;;;;;;;154.80;22.07;;;;;;;2.08;100.00;101962.59;20804714;28;20745;-59
2021/11/09 08:30:35;;;;;;;67.13;15.93;;;;;;;2.16;100.00;101971.38;20811977;28;20232;-66
2021/11/09 08:40:39;;;;;;;74.50;15.47;;;;;;;2.30;100.00;101987.09;20797619;28;20218;-61
2021/11/09 08:50:48;;;;;;;127.70;23.87;;;;;;;2.73;100.00;101996.59;20797929;28;20222;-66
2021/11/09 09:11:14;;;;;;;78.17;21.90;;;;;;;2.92;100.00;102026.34;20874823;28;21023;-65
2021/11/09 09:21:23;;;;;;;75.03;19.83;;;;;;;3.00;100.00;102036.88;20881151;28;20241;-67
2021/11/09 09:52:39;;;;;;;50.53;20.83;;;;;;;3.60;100.00;102077.81;20876419;28;20742;-67
2021/11/09 10:02:51;;;;;;;66.43;21.47;;;;;;;4.04;100.00;102092.41;20877754;28;20750;-65
2021/11/09 10:12:59;;;;;;;68.97;21.83;;;;;;;4.23;100.00;102096.59;20877142;28;20330;-66
2021/11/09 10:23:05;;;;;;;58.70;20.80;;;;;;;4.57;100.00;102102.44;20875810;28;20227;-65
2021/11/09 10:33:13;;;;;;;71.63;26.27;;;;;;;4.74;100.00;102099.59;20873005;28;20224;-66
2021/11/09 10:43:19;;;;;;;68.50;28.60;;;;;;;4.86;100.00;102102.97;20873746;28;20334;-61
2021/11/09 10:53:32;;;;;;;70.97;29.20;;;;;;;4.91;100.00;102103.78;20874461;28;20660;-65
2021/11/09 11:03:50;;;;;;;65.40;28.10;;;;;;;4.78;100.00;102109.25;20871355;28;20289;-66
2021/11/09 11:13:56;;;;;;;67.87;28.90;;;;;;;4.86;100.00;102120.59;20876478;28;20309;-66
2021/11/09 11:24:00;;;;;;;74.63;30.13;;;;;;;4.79;100.00;102121.59;20871922;28;20231;-65
2021/11/09 11:34:05;;;;;;;73.47;29.47;;;;;;;4.71;100.00;102141.03;20870610;28;20310;-59
2021/11/09 11:44:09;;;;;;;69.50;29.50;;;;;;;4.66;100.00;102140.22;20875565;28;20787;-60
2021/11/09 11:54:17;;;;;;;70.93;26.13;;;;;;;4.75;100.00;102151.59;20887101;28;20250;-59
2021/11/09 12:04:54;;;;;;;70.40;27.43;;;;;;;4.70;100.00;102163.13;20888067;28;20332;-67
2021/11/09 12:15:00;;;;;;;169.60;84.63;;;;;;;4.42;100.00;102156.34;20884551;28;20300;-68
2021/11/09 12:25:05;;;;;;;81.23;38.70;;;;;;;4.33;100.00;102140.59;20883792;28;20306;-68
2021/11/09 12:35:22;;;;;;;62.87;25.37;;;;;;;4.38;100.00;102159.91;20883947;28;21083;-64
2021/11/09 12:45:28;;;;;;;59.27;24.63;;;;;;;4.31;100.00;102168.78;20882905;28;20223;-64
2021/11/09 12:55:35;;;;;;;43.00;19.47;;;;;;;4.37;100.00;102163.44;20882455;28;20669;-65
2021/11/09 13:05:51;;;;;;;38.17;17.60;;;;;;;4.51;100.00;102171.22;20879929;28;20607;-63
2021/11/09 13:15:58;;;;;;;39.03;17.17;;;;;;;4.33;100.00;102173.19;20877956;28;20250;-68
2021/11/09 13:26:01;;;;;;;65.83;24.40;;;;;;;4.33;100.00;102156.44;20880595;28;20231;-64
2021/11/09 13:36:09;;;;;;;132.80;45.27;;;;;;;4.50;100.00;102159.78;20880895;28;20224;-66
2021/11/09 13:46:14;;;;;;;49.20;23.97;;;;;;;4.45;100.00;102147.53;20878809;28;20228;-68
2021/11/09 13:56:22;;;;;;;46.37;23.03;;;;;;;4.62;100.00;102175.53;20879013;28;20235;-68
2021/11/09 14:06:49;;;;;;;35.70;18.83;;;;;;;4.49;100.00;102173.88;20878193;28;20227;-65
2021/11/09 14:16:56;;;;;;;29.60;16.00;;;;;;;4.65;100.00;102175.50;20895034;28;20219;-62
2021/11/09 14:27:06;;;;;;;35.97;17.63;;;;;;;4.22;100.00;102190.03;20904303;28;20306;-58
2021/11/09 14:37:19;;;;;;;32.30;16.60;;;;;;;3.94;100.00;102190.22;20903729;28;20271;-59
2021/11/09 14:47:23;;;;;;;37.03;19.70;;;;;;;3.58;100.00;102191.31;20904318;28;20328;-64
2021/11/09 14:57:36;;;;;;;32.90;18.40;;;;;;;3.30;100.00;102188.81;20904005;28;20242;-66
2021/11/09 15:07:53;;;;;;;34.53;17.90;;;;;;;3.17;100.00;102193.28;20902712;28;20340;-59
2021/11/09 15:28:26;;;;;;;38.17;18.63;;;;;;;3.15;100.00;102202.94;20918972;28;20219;-68
2021/11/09 15:38:31;;;;;;;38.03;18.33;;;;;;;3.09;100.00;102201.22;20918529;28;20226;-58
2021/11/09 15:48:35;;;;;;;122.73;79.00;;;;;;;2.77;100.00;102187.25;20917629;28;20226;-72
2021/11/09 15:58:40;;;;;;;98.40;43.00;;;;;;;2.37;100.00;102184.69;20915893;28;20241;-61
2021/11/09 16:08:44;;;;;;;171.43;51.43;;;;;;;2.03;100.00;102201.38;20891950;28;20237;-63
2021/11/09 16:18:49;;;;;;;167.80;47.93;;;;;;;1.57;100.00;102209.16;20913968;28;20277;-60
2021/11/09 16:28:53;;;;;;;109.73;39.47;;;;;;;1.30;100.00;102217.84;20913262;28;20227;-59
2021/11/09 16:39:03;;;;;;;68.87;29.13;;;;;;;1.15;100.00;102222.16;20909158;28;20219;-57
2021/11/09 16:49:17;;;;;;;68.87;27.07;;;;;;;1.00;100.00;102229.09;20912172;28;20249;-60
2021/11/09 18:22:37;;;;;;;69.37;30.23;;;;;;;0.48;100.00;102253.28;20881393;28;20239;-62
2021/11/09 18:32:43;;;;;;;55.20;26.93;;;;;;;0.46;100.00;102255.00;20894818;28;20227;-65
2021/11/09 18:42:49;;;;;;;66.40;27.77;;;;;;;0.42;100.00;102275.09;20893871;28;20266;-67
2021/11/09 18:52:53;;;;;;;74.23;29.50;;;;;;;0.33;100.00;102270.66;20896829;28;20247;-65
2021/11/09 19:02:58;;;;;;;76.47;31.73;;;;;;;0.32;100.00;102258.38;20900370;28;20235;-58
2021/11/09 19:13:04;;;;;;;83.20;33.17;;;;;;;0.27;100.00;102270.59;20836296;28;20227;-61
2021/11/09 19:23:10;;;;;;;80.70;31.53;;;;;;;0.15;100.00;102266.97;20820737;28;20650;-59
2021/11/09 19:33:14;;;;;;;84.30;32.97;;;;;;;0.05;100.00;102273.88;20827355;28;20227;-60
2021/11/09 19:43:19;;;;;;;93.27;37.03;;;;;;;-0.02;100.00;102266.81;20894374;28;20227;-64
2021/11/09 19:53:23;;;;;;;116.17;40.97;;;;;;;-0.07;100.00;102264.13;20882207;28;20668;-61
2021/11/09 20:03:29;;;;;;;94.33;36.97;;;;;;;-0.26;100.00;102269.19;20816962;28;20713;-63
2021/11/09 20:23:33;;;;;;;96.73;37.33;;;;;;;-0.30;100.00;102262.13;21067341;27;20624;-66
2021/11/09 20:43:35;;;;;;;102.77;41.57;;;;;;;-0.27;100.00;102249.94;21082637;27;20429;-62
2021/11/09 20:53:39;;;;;;;129.67;46.73;;;;;;;-0.21;100.00;102264.84;21083184;28;20226;-63
2021/11/09 21:03:45;;;;;;;126.13;46.60;;;;;;;-0.19;100.00;102256.13;21057080;28;20672;-62
2021/11/09 21:14:07;;;;;;;137.87;51.23;;;;;;;-0.19;100.00;102260.50;21049563;28;20246;-61
2021/11/09 21:24:12;;;;;;;119.30;46.87;;;;;;;-0.23;100.00;102250.81;21131187;28;20230;-62
2021/11/09 21:54:36;;;;;;;104.57;40.33;;;;;;;-0.10;100.00;102250.09;21108563;27;20575;-60
2021/11/09 22:04:40;;;;;;;105.90;38.47;;;;;;;-0.10;100.00;102256.22;21108590;28;20751;-59
2021/11/09 22:14:45;;;;;;;96.77;39.00;;;;;;;-0.05;100.00;102253.66;21046061;28;20591;-60
2021/11/09 22:24:49;;;;;;;108.67;38.23;;;;;;;-0.04;100.00;102255.41;21001140;28;20242;-63
2021/11/09 22:34:54;;;;;;;102.57;34.43;;;;;;;-0.17;100.00;102250.91;21007201;28;20333;-63
2021/11/09 22:56:04;;;;;;;93.23;35.70;;;;;;;-0.08;100.00;102241.38;21133313;27;20570;-67
2021/11/09 23:16:06;;;;;;;94.93;34.50;;;;;;;-0.05;100.00;102230.03;20973209;27;20300;-68
2021/11/09 23:26:09;;;;;;;90.53;33.87;;;;;;;-0.08;100.00;102209.88;20971721;28;20218;-67
2021/11/09 23:36:13;;;;;;;81.07;34.07;;;;;;;-0.03;100.00;102199.44;20972616;28;20229;-64
